Chaffee Village, Texas
Current Conditions -  °F | °C
As of 11:56 PM on Wednesday 22 Oct 2014 (Local Time) from KHLR Reporting Station
Clear Clear  
Wind Chill: 72°   Ceiling: Unl
Heat Index: 72°   Visibility: 10mi
Dew Point: 59°   Wind: 5mph
Humidity: 64%   Direction: 110°ESE
Pressure: 30.11"   Gusts: NA
Location:  31.2151°N, 97.7405°W
Report Text: KHLR 230456Z 11004KT 10SM CLR 22/15 A3011 RMK AO2 SLP219 T02220150 $
Loading
Personal Weather Stations






























Interactive Weather Map
Tropical Storm Tracking
New forecast layout! Learn more

10-Day Weather Forecast

Advertisements
Track Severe Weather on mobile